Time;durP1;ratioP1;P1;durP2;ratioP2;P2;SDS_P1;SDS_P2;PMS_P1;PMS_P2;Temp;Humidity;BMP_temperature;BMP_pressure;BME280_temperature;BME280_humidity;BME280_pressure;Samples;Min_cycle;Max_cycle;Signal;HPM_P1;HPM_P2
2023/11/08 00:01:43;;;;;;;1.40;1.00;;;21.80;58.90;;;;;;5052891;28;20170;-68
2023/11/08 00:04:09;;;;;;;1.60;1.20;;;21.80;58.90;;;;;;5052796;28;20700;-68
2023/11/08 00:06:34;;;;;;;2.90;1.40;;;21.80;58.90;;;;;;5052677;28;20210;-68
2023/11/08 00:09:00;;;;;;;1.77;1.10;;;21.80;58.90;;;;;;5052705;28;20181;-66
2023/11/08 00:11:26;;;;;;;2.50;1.30;;;21.80;58.90;;;;;;5052775;28;20241;-68
2023/11/08 00:13:52;;;;;;;1.53;1.10;;;21.80;58.90;;;;;;5052727;28;20186;-69
2023/11/08 00:16:18;;;;;;;1.63;1.20;;;21.80;58.90;;;;;;5052504;28;20203;-68
2023/11/08 00:18:44;;;;;;;2.60;1.17;;;21.80;58.90;;;;;;5052255;28;20472;-68
2023/11/08 00:21:11;;;;;;;1.60;1.30;;;21.80;58.90;;;;;;5051621;28;20418;-69
2023/11/08 00:23:39;;;;;;;1.20;0.97;;;21.80;58.90;;;;;;5051103;28;20417;-68
2023/11/08 00:26:06;;;;;;;1.53;1.20;;;21.80;58.90;;;;;;5052506;28;20482;-67
2023/11/08 00:28:32;;;;;;;2.27;1.10;;;21.80;58.90;;;;;;5052294;28;20462;-67
2023/11/08 00:30:58;;;;;;;1.87;1.40;;;21.80;58.90;;;;;;5052605;28;20422;-68
2023/11/08 00:33:24;;;;;;;1.50;1.03;;;21.80;58.90;;;;;;5052232;28;20886;-68
2023/11/08 00:35:50;;;;;;;2.07;1.37;;;21.80;58.90;;;;;;5052435;28;20222;-68
2023/11/08 00:38:16;;;;;;;1.87;1.30;;;21.80;58.90;;;;;;5052037;28;20453;-68
2023/11/08 00:40:42;;;;;;;2.47;1.10;;;21.80;58.90;;;;;;5052207;28;20412;-69
2023/11/08 00:43:09;;;;;;;1.50;1.20;;;21.80;58.90;;;;;;5052023;28;21220;-67
2023/11/08 00:45:35;;;;;;;1.67;1.07;;;21.80;58.90;;;;;;5051852;28;20195;-68
2023/11/08 00:48:01;;;;;;;2.03;1.03;;;21.80;58.90;;;;;;5050923;28;20448;-68
2023/11/08 00:50:30;;;;;;;1.83;1.17;;;21.80;58.90;;;;;;5051888;28;20221;-67
2023/11/08 00:52:58;;;;;;;1.90;1.23;;;21.80;58.90;;;;;;5051938;28;20175;-68
2023/11/08 00:55:24;;;;;;;2.13;1.50;;;21.80;58.90;;;;;;5051815;28;20441;-68
2023/11/08 00:57:50;;;;;;;1.60;1.10;;;21.80;58.90;;;;;;5051595;28;20544;-68
2023/11/08 01:00:17;;;;;;;1.87;0.97;;;21.80;58.90;;;;;;5051894;28;20758;-68
2023/11/08 01:02:42;;;;;;;1.57;1.00;;;21.80;58.90;;;;;;5051862;28;20421;-66
2023/11/08 01:05:09;;;;;;;1.60;1.13;;;21.80;58.90;;;;;;5051731;28;20410;-68
2023/11/08 01:07:36;;;;;;;2.13;1.47;;;21.80;58.90;;;;;;5051564;28;20174;-67
2023/11/08 01:10:02;;;;;;;1.50;1.17;;;21.80;58.90;;;;;;5051311;28;20501;-68
2023/11/08 01:12:27;;;;;;;1.63;1.10;;;21.80;58.90;;;;;;5051641;28;20421;-68
2023/11/08 01:14:53;;;;;;;2.00;1.30;;;21.80;58.90;;;;;;5051276;28;20406;-68
2023/11/08 01:17:19;;;;;;;1.77;1.33;;;21.80;58.80;;;;;;5051438;28;20289;-68
2023/11/08 01:19:45;;;;;;;1.97;1.40;;;21.80;58.90;;;;;;5051593;28;20254;-68
2023/11/08 01:22:11;;;;;;;1.20;0.90;;;21.80;58.90;;;;;;5051188;28;20220;-68
2023/11/08 01:24:40;;;;;;;1.40;1.10;;;21.80;58.90;;;;;;5051250;28;20179;-68
2023/11/08 01:27:06;;;;;;;1.80;1.03;;;21.80;58.90;;;;;;5050912;28;20433;-67
2023/11/08 01:29:32;;;;;;;1.40;1.10;;;21.80;58.90;;;;;;5051334;28;20420;-68
2023/11/08 01:31:58;;;;;;;1.40;0.80;;;21.80;58.90;;;;;;5051046;28;20167;-68
2023/11/08 01:34:24;;;;;;;1.63;1.00;;;21.80;58.90;;;;;;5051068;28;20799;-67
2023/11/08 01:36:49;;;;;;;2.27;1.27;;;21.80;58.90;;;;;;5050835;28;20195;-68
2023/11/08 01:39:16;;;;;;;1.53;1.30;;;21.80;58.90;;;;;;5050746;28;20232;-67
2023/11/08 01:41:48;;;;;;;1.20;1.07;;;21.80;58.90;;;;;;5050875;28;20186;-69
2023/11/08 01:44:18;;;;;;;1.77;1.00;;;21.80;58.90;;;;;;5050867;28;20390;-68
2023/11/08 01:46:48;;;;;;;1.50;1.00;;;21.80;58.90;;;;;;5051287;28;20437;-68
2023/11/08 01:49:14;;;;;;;1.70;1.10;;;21.80;58.90;;;;;;5050723;28;20495;-68
2023/11/08 01:51:41;;;;;;;1.40;1.10;;;21.80;58.90;;;;;;5050788;28;20511;-68
2023/11/08 01:54:07;;;;;;;1.70;1.17;;;21.80;58.90;;;;;;5050652;28;20203;-67
2023/11/08 01:56:34;;;;;;;1.83;1.13;;;21.80;58.90;;;;;;5050560;28;20970;-68
2023/11/08 01:59:00;;;;;;;1.43;0.97;;;21.80;58.90;;;;;;5050296;28;20492;-68
2023/11/08 02:01:26;;;;;;;1.77;1.00;;;21.80;58.90;;;;;;5050996;28;20408;-68
2023/11/08 02:03:53;;;;;;;1.53;1.00;;;21.80;58.90;;;;;;5050559;28;20401;-68
2023/11/08 02:06:19;;;;;;;1.33;0.90;;;21.80;58.90;;;;;;5050469;28;20914;-68
2023/11/08 02:08:45;;;;;;;1.60;1.10;;;21.80;58.90;;;;;;5050421;28;20425;-68
2023/11/08 02:11:15;;;;;;;1.20;0.90;;;21.80;58.90;;;;;;5050477;28;20704;-68
2023/11/08 02:13:41;;;;;;;1.83;1.03;;;21.80;58.90;;;;;;5050804;28;20409;-69
2023/11/08 02:16:06;;;;;;;1.10;0.90;;;21.80;58.90;;;;;;5050456;28;20880;-68
2023/11/08 02:18:32;;;;;;;1.10;0.80;;;21.80;58.90;;;;;;5050425;28;20496;-68
2023/11/08 02:21:00;;;;;;;1.47;1.20;;;21.80;58.90;;;;;;5050624;28;20605;-69
2023/11/08 02:23:27;;;;;;;2.03;0.97;;;21.80;58.90;;;;;;5050265;28;20405;-68
2023/11/08 02:25:53;;;;;;;1.67;0.90;;;21.80;58.90;;;;;;5050091;28;20429;-68
2023/11/08 02:28:20;;;;;;;1.20;1.10;;;21.80;58.90;;;;;;5050213;28;20500;-69
2023/11/08 02:30:54;;;;;;;1.30;0.97;;;21.80;58.90;;;;;;5050202;28;20421;-68
2023/11/08 02:33:20;;;;;;;1.20;0.93;;;21.80;58.90;;;;;;5050369;28;20398;-69
2023/11/08 02:35:47;;;;;;;1.20;0.80;;;21.80;58.90;;;;;;5050208;28;20434;-68
2023/11/08 02:38:14;;;;;;;1.50;1.10;;;21.80;58.90;;;;;;5049949;28;20465;-69
2023/11/08 02:40:43;;;;;;;1.00;0.80;;;21.80;58.90;;;;;;5050229;28;20934;-68
2023/11/08 02:43:09;;;;;;;1.63;1.20;;;21.80;58.90;;;;;;5050090;28;20459;-68
2023/11/08 02:45:35;;;;;;;1.50;1.00;;;21.80;58.90;;;;;;5049992;28;20424;-69
2023/11/08 02:48:05;;;;;;;2.23;1.20;;;21.80;58.90;;;;;;5050258;28;20500;-68
2023/11/08 02:50:38;;;;;;;1.07;0.83;;;21.80;58.90;;;;;;5050158;28;20564;-68
2023/11/08 02:53:04;;;;;;;1.23;0.80;;;21.80;58.90;;;;;;5050207;28;20405;-68
2023/11/08 02:55:31;;;;;;;1.43;1.23;;;21.80;58.90;;;;;;5049853;28;20441;-68
2023/11/08 02:57:58;;;;;;;1.10;0.90;;;21.80;58.90;;;;;;5049933;28;20457;-67
2023/11/08 03:00:23;;;;;;;1.77;0.97;;;21.80;58.90;;;;;;5049401;28;20417;-68
2023/11/08 03:02:51;;;;;;;1.20;0.80;;;21.80;58.90;;;;;;5050016;28;20402;-69
2023/11/08 03:05:23;;;;;;;1.10;0.80;;;21.80;58.90;;;;;;5050266;28;20278;-68
2023/11/08 03:07:52;;;;;;;1.00;0.73;;;21.80;58.90;;;;;;5050028;28;20393;-69
2023/11/08 03:10:18;;;;;;;1.40;0.80;;;21.80;58.90;;;;;;5049938;28;20433;-68
2023/11/08 03:12:48;;;;;;;1.30;0.90;;;21.80;58.90;;;;;;5053657;28;20409;-68
2023/11/08 03:15:16;;;;;;;1.40;0.90;;;21.80;58.90;;;;;;5053626;28;20437;-67
2023/11/08 03:17:44;;;;;;;1.20;0.97;;;21.80;58.90;;;;;;5053199;28;20464;-68
2023/11/08 03:20:12;;;;;;;1.10;0.80;;;21.80;58.90;;;;;;5053532;28;20920;-67
2023/11/08 03:22:39;;;;;;;1.20;0.93;;;21.80;58.90;;;;;;5053396;28;20424;-69
2023/11/08 03:25:06;;;;;;;1.30;1.03;;;21.80;58.90;;;;;;5053481;28;20414;-68
2023/11/08 03:27:31;;;;;;;1.13;0.90;;;21.80;58.90;;;;;;5053394;28;20897;-68
2023/11/08 03:29:57;;;;;;;1.33;1.10;;;21.80;58.90;;;;;;5053387;28;20478;-68
2023/11/08 03:32:27;;;;;;;1.20;0.90;;;21.80;58.90;;;;;;5053195;28;20178;-69
2023/11/08 03:34:56;;;;;;;1.40;0.90;;;21.80;58.90;;;;;;5053230;28;20409;-68
2023/11/08 03:37:21;;;;;;;2.20;1.00;;;21.80;58.90;;;;;;5053140;28;20410;-68
2023/11/08 03:39:47;;;;;;;1.40;1.10;;;21.80;58.90;;;;;;5053015;28;20449;-68
2023/11/08 03:42:12;;;;;;;1.20;0.83;;;21.80;58.90;;;;;;5052967;28;20281;-69
2023/11/08 03:44:38;;;;;;;1.07;0.80;;;21.80;58.90;;;;;;5051568;28;20175;-68
2023/11/08 03:47:06;;;;;;;1.50;1.00;;;21.80;58.90;;;;;;5052951;28;20202;-68
2023/11/08 03:49:34;;;;;;;1.80;1.13;;;21.80;58.90;;;;;;5053007;28;20221;-67
2023/11/08 03:52:01;;;;;;;1.50;1.03;;;21.70;58.80;;;;;;5052723;28;20414;-67
2023/11/08 03:54:26;;;;;;;1.13;0.90;;;21.80;58.90;;;;;;5053111;28;20471;-68
2023/11/08 03:56:52;;;;;;;1.47;0.80;;;21.80;58.90;;;;;;5052780;28;20846;-68
2023/11/08 03:59:18;;;;;;;1.30;1.00;;;21.70;58.80;;;;;;5052965;28;20281;-68
2023/11/08 04:01:46;;;;;;;1.30;0.97;;;21.80;58.90;;;;;;5052658;28;20558;-68
2023/11/08 04:04:11;;;;;;;1.70;1.10;;;21.80;58.90;;;;;;5052794;28;20413;-68
2023/11/08 04:06:37;;;;;;;1.50;0.90;;;21.80;58.90;;;;;;5052583;28;20436;-68
2023/11/08 04:09:04;;;;;;;2.00;1.10;;;21.80;58.90;;;;;;5052583;28;20182;-68
2023/11/08 04:11:30;;;;;;;1.40;1.00;;;21.80;58.90;;;;;;5052649;28;20234;-68
2023/11/08 04:13:56;;;;;;;1.10;0.80;;;21.70;58.80;;;;;;5052285;28;20639;-68
2023/11/08 04:16:22;;;;;;;1.50;0.80;;;21.70;58.80;;;;;;5052319;28;20940;-69
2023/11/08 04:18:48;;;;;;;1.37;1.03;;;21.70;58.80;;;;;;5052353;28;21064;-68
2023/11/08 04:21:14;;;;;;;1.20;0.90;;;21.80;58.90;;;;;;5052089;28;20258;-68
2023/11/08 04:23:40;;;;;;;1.03;0.77;;;21.70;58.80;;;;;;5052292;28;20496;-68
2023/11/08 04:26:06;;;;;;;1.50;1.07;;;21.70;58.80;;;;;;5052099;28;20273;-68
2023/11/08 04:28:32;;;;;;;1.87;0.80;;;21.70;58.80;;;;;;5052174;28;20227;-68
2023/11/08 04:30:58;;;;;;;1.60;1.00;;;21.80;58.90;;;;;;5052225;28;20422;-68
2023/11/08 04:33:24;;;;;;;1.40;0.90;;;21.70;58.80;;;;;;5052272;28;20414;-66
2023/11/08 04:35:50;;;;;;;1.13;0.80;;;21.70;58.80;;;;;;5051883;28;20199;-69
2023/11/08 04:38:15;;;;;;;1.13;0.83;;;21.70;58.80;;;;;;5052058;28;20453;-68
2023/11/08 04:40:42;;;;;;;1.20;0.97;;;21.70;58.80;;;;;;5051950;28;20228;-68
2023/11/08 04:43:07;;;;;;;1.50;1.10;;;21.70;58.80;;;;;;5052036;28;20171;-68
2023/11/08 04:45:33;;;;;;;1.13;0.90;;;21.70;58.80;;;;;;5051989;28;20441;-68
2023/11/08 04:47:58;;;;;;;1.10;0.80;;;21.80;58.90;;;;;;5050455;28;20190;-68
2023/11/08 04:50:24;;;;;;;1.20;0.90;;;21.70;58.80;;;;;;5051792;28;20178;-67
2023/11/08 04:52:49;;;;;;;1.20;0.90;;;21.70;58.80;;;;;;5050348;28;20264;-69
2023/11/08 04:55:15;;;;;;;1.13;0.83;;;21.70;58.80;;;;;;5050441;28;20294;-67
2023/11/08 04:57:41;;;;;;;1.70;1.00;;;21.80;58.90;;;;;;5051537;28;20170;-68
2023/11/08 05:00:07;;;;;;;1.30;0.90;;;21.70;58.80;;;;;;5051738;28;20175;-68
2023/11/08 05:02:33;;;;;;;1.30;1.20;;;21.70;58.80;;;;;;5051508;28;20265;-68
2023/11/08 05:04:59;;;;;;;1.40;0.90;;;21.70;58.80;;;;;;5051296;28;20406;-69
2023/11/08 05:07:25;;;;;;;2.27;1.10;;;21.70;58.80;;;;;;5051630;28;20420;-67
2023/11/08 05:09:53;;;;;;;1.43;0.87;;;21.70;58.80;;;;;;5051427;28;20529;-68
2023/11/08 05:12:19;;;;;;;1.10;0.90;;;21.70;58.80;;;;;;5051344;28;20171;-66
2023/11/08 05:14:45;;;;;;;1.33;1.10;;;21.70;59.30;;;;;;5051565;28;21113;-68
2023/11/08 05:17:10;;;;;;;1.30;0.93;;;21.70;58.80;;;;;;5051252;28;20522;-68
2023/11/08 05:19:37;;;;;;;1.10;0.90;;;21.70;58.80;;;;;;5051326;28;20441;-67
2023/11/08 05:22:02;;;;;;;1.30;0.80;;;21.70;58.80;;;;;;5051498;28;20167;-68
2023/11/08 05:24:30;;;;;;;1.40;0.80;;;21.80;58.90;;;;;;5051404;28;20485;-67
2023/11/08 05:26:56;;;;;;;1.30;1.00;;;21.70;58.80;;;;;;5051219;28;20565;-68
2023/11/08 05:29:21;;;;;;;1.47;0.90;;;21.70;58.80;;;;;;5051393;28;20417;-68
2023/11/08 05:31:47;;;;;;;1.50;0.90;;;21.70;58.80;;;;;;5051007;28;20175;-68
2023/11/08 05:34:15;;;;;;;1.00;0.90;;;21.70;58.80;;;;;;5050569;28;20254;-69
2023/11/08 05:36:40;;;;;;;1.00;0.80;;;21.70;58.80;;;;;;5050938;28;20464;-68
2023/11/08 05:39:06;;;;;;;1.07;0.90;;;21.70;58.80;;;;;;5051192;28;20465;-68
2023/11/08 05:41:32;;;;;;;1.00;0.67;;;21.70;58.80;;;;;;5051016;28;20237;-68
2023/11/08 05:43:58;;;;;;;1.43;0.90;;;21.70;58.80;;;;;;5050801;28;20181;-68
2023/11/08 05:46:27;;;;;;;1.30;0.83;;;21.70;58.80;;;;;;5050779;28;20193;-68
2023/11/08 05:48:55;;;;;;;1.10;0.80;;;21.70;58.80;;;;;;5050768;28;20964;-68
2023/11/08 05:51:21;;;;;;;1.23;0.70;;;21.70;59.40;;;;;;5050674;28;20437;-66
2023/11/08 05:53:47;;;;;;;1.20;0.80;;;21.70;58.80;;;;;;5050937;28;20413;-68
2023/11/08 05:56:13;;;;;;;1.00;0.70;;;21.70;58.90;;;;;;5050787;28;20486;-68
2023/11/08 05:58:39;;;;;;;1.33;0.93;;;21.70;58.80;;;;;;5050814;28;20974;-68
2023/11/08 06:01:06;;;;;;;0.97;0.73;;;21.80;58.90;;;;;;5050975;28;20163;-68
2023/11/08 06:03:32;;;;;;;1.30;0.90;;;21.70;58.80;;;;;;5051147;28;20438;-69
2023/11/08 06:05:58;;;;;;;0.90;0.70;;;21.70;58.80;;;;;;5050582;28;20441;-68
2023/11/08 06:08:23;;;;;;;1.00;0.80;;;21.70;58.80;;;;;;5050787;28;20413;-67
2023/11/08 06:10:49;;;;;;;1.10;0.80;;;21.80;59.50;;;;;;5050524;28;20420;-67
2023/11/08 06:13:15;;;;;;;1.40;0.80;;;21.70;58.80;;;;;;5050470;28;20198;-68
2023/11/08 06:15:41;;;;;;;1.00;0.70;;;21.70;58.80;;;;;;5050471;28;20226;-68
2023/11/08 06:18:08;;;;;;;1.00;0.90;;;21.70;58.80;;;;;;5050372;28;20495;-68
2023/11/08 06:20:35;;;;;;;0.83;0.67;;;21.70;58.80;;;;;;5050502;28;20406;-68
2023/11/08 06:23:02;;;;;;;1.10;0.80;;;21.70;58.80;;;;;;5050788;28;20410;-68
2023/11/08 06:25:29;;;;;;;1.00;0.70;;;21.80;58.90;;;;;;5050669;28;20429;-67
2023/11/08 06:27:54;;;;;;;1.00;0.70;;;21.70;58.80;;;;;;5050602;28;20421;-65
2023/11/08 06:30:20;;;;;;;0.90;0.70;;;21.80;58.90;;;;;;5050848;28;20406;-69
2023/11/08 06:32:45;;;;;;;1.10;0.77;;;21.70;58.80;;;;;;5050799;28;20552;-68
2023/11/08 06:35:11;;;;;;;1.20;0.87;;;21.70;58.80;;;;;;5050237;28;20198;-67
2023/11/08 06:37:37;;;;;;;1.03;0.73;;;21.70;58.80;;;;;;5050686;28;20252;-67
2023/11/08 06:40:05;;;;;;;1.10;0.80;;;21.80;58.90;;;;;;5050545;28;20456;-68
2023/11/08 06:42:30;;;;;;;0.90;0.70;;;21.70;58.80;;;;;;5051219;28;20920;-68
2023/11/08 06:44:57;;;;;;;1.10;0.80;;;21.80;58.90;;;;;;5051247;28;20508;-68
2023/11/08 06:47:24;;;;;;;1.50;0.80;;;21.70;58.80;;;;;;5054370;28;20250;-67
2023/11/08 06:49:49;;;;;;;1.13;0.87;;;21.70;58.80;;;;;;5054365;28;20405;-69
2023/11/08 06:52:15;;;;;;;1.00;0.80;;;21.80;58.90;;;;;;5054125;28;20413;-67
2023/11/08 06:54:41;;;;;;;1.37;0.80;;;21.70;58.80;;;;;;5054251;28;20408;-67
2023/11/08 06:57:07;;;;;;;1.23;0.80;;;21.70;58.80;;;;;;5054460;28;20222;-68
2023/11/08 06:59:33;;;;;;;2.00;0.90;;;21.70;58.80;;;;;;5054407;28;20844;-68
2023/11/08 07:01:59;;;;;;;1.00;0.80;;;21.80;58.80;;;;;;5054410;28;20252;-68
2023/11/08 07:04:24;;;;;;;1.20;0.90;;;21.80;58.80;;;;;;5054111;28;20175;-68
2023/11/08 07:06:50;;;;;;;0.90;0.70;;;21.80;58.90;;;;;;5053797;28;20187;-68
2023/11/08 07:09:15;;;;;;;1.33;0.90;;;21.80;58.90;;;;;;5054389;28;20285;-67
2023/11/08 07:11:41;;;;;;;0.80;0.70;;;21.80;58.90;;;;;;5054048;28;20167;-68
2023/11/08 07:14:07;;;;;;;0.90;0.70;;;21.80;58.90;;;;;;5054459;28;20688;-68
2023/11/08 07:16:32;;;;;;;1.43;0.90;;;21.80;58.90;;;;;;5054027;28;20249;-68
2023/11/08 07:18:58;;;;;;;1.10;0.90;;;21.80;58.90;;;;;;5053600;28;20210;-68
2023/11/08 07:21:23;;;;;;;1.00;0.70;;;21.80;58.90;;;;;;5053682;28;20209;-68
2023/11/08 07:23:49;;;;;;;1.07;0.80;;;21.80;58.90;;;;;;5053738;28;20593;-67
2023/11/08 07:26:16;;;;;;;1.00;0.70;;;21.80;58.90;;;;;;5053599;28;20191;-68
2023/11/08 07:28:45;;;;;;;1.30;0.73;;;21.80;58.90;;;;;;5053694;28;20195;-67
2023/11/08 07:31:11;;;;;;;1.00;0.70;;;21.80;58.90;;;;;;5053703;28;20409;-68
2023/11/08 07:33:37;;;;;;;1.00;0.70;;;21.80;58.90;;;;;;5053554;28;20418;-68
2023/11/08 07:36:06;;;;;;;1.33;0.80;;;21.80;58.90;;;;;;5053439;28;20278;-66
2023/11/08 07:38:32;;;;;;;1.00;0.73;;;21.80;58.90;;;;;;5053652;28;20819;-68
2023/11/08 07:41:00;;;;;;;1.23;0.90;;;21.80;58.90;;;;;;5053144;28;20413;-66
2023/11/08 07:43:26;;;;;;;1.20;0.90;;;21.80;58.90;;;;;;5053483;28;20521;-66
2023/11/08 07:45:52;;;;;;;1.10;0.80;;;21.80;58.90;;;;;;5053429;28;20504;-66
2023/11/08 07:48:17;;;;;;;1.00;0.70;;;21.80;58.90;;;;;;5053221;28;20167;-67
2023/11/08 07:50:43;;;;;;;1.33;0.90;;;21.80;58.90;;;;;;5053378;28;20650;-68
2023/11/08 07:53:09;;;;;;;1.03;0.80;;;21.80;58.90;;;;;;5053096;28;20185;-69
2023/11/08 07:55:34;;;;;;;1.10;0.80;;;21.80;58.90;;;;;;5052259;28;20286;-68
2023/11/08 07:58:00;;;;;;;1.27;0.73;;;21.80;58.90;;;;;;5052974;28;20416;-67
2023/11/08 08:00:27;;;;;;;1.00;0.70;;;21.80;58.90;;;;;;5053360;28;20547;-68
2023/11/08 08:02:53;;;;;;;0.93;0.70;;;21.90;59.00;;;;;;5053009;28;20221;-69
2023/11/08 08:05:19;;;;;;;0.97;0.70;;;21.90;59.00;;;;;;5052788;28;20499;-68
2023/11/08 08:07:45;;;;;;;1.00;0.70;;;21.90;59.00;;;;;;5052724;28;20406;-66
2023/11/08 08:10:12;;;;;;;0.90;0.67;;;21.90;59.00;;;;;;5053094;28;20467;-68
2023/11/08 08:12:42;;;;;;;1.37;0.90;;;21.90;59.00;;;;;;5052922;28;20171;-67
2023/11/08 08:15:09;;;;;;;1.00;0.80;;;21.90;59.00;;;;;;5053013;28;20393;-67
2023/11/08 08:17:35;;;;;;;1.10;0.70;;;21.90;59.00;;;;;;5052536;28;20815;-68
2023/11/08 08:20:06;;;;;;;1.13;0.70;;;21.90;59.00;;;;;;5052705;28;20523;-68
2023/11/08 08:22:32;;;;;;;1.00;0.70;;;21.90;59.00;;;;;;5052569;28;20171;-68
2023/11/08 08:24:59;;;;;;;1.10;0.70;;;21.90;59.00;;;;;;5052938;28;20913;-67
2023/11/08 08:27:25;;;;;;;1.00;0.90;;;21.90;59.00;;;;;;5052774;28;20166;-67
2023/11/08 08:29:51;;;;;;;1.10;0.80;;;21.90;59.00;;;;;;5052840;28;20433;-67
2023/11/08 08:32:17;;;;;;;1.00;0.70;;;21.90;59.00;;;;;;5051059;28;20452;-68
2023/11/08 08:34:44;;;;;;;1.13;0.80;;;21.90;59.00;;;;;;5052655;28;20417;-68
2023/11/08 08:37:10;;;;;;;0.80;0.60;;;21.90;59.00;;;;;;5052391;28;20205;-66
2023/11/08 08:39:36;;;;;;;0.90;0.73;;;21.90;59.00;;;;;;5052640;28;20986;-68
2023/11/08 08:42:05;;;;;;;1.30;0.83;;;21.90;59.00;;;;;;5052466;28;20198;-68
2023/11/08 08:44:34;;;;;;;1.07;0.77;;;21.90;59.00;;;;;;5052437;28;20409;-67
2023/11/08 08:46:59;;;;;;;1.00;0.80;;;21.90;59.00;;;;;;5051080;28;20430;-68
2023/11/08 08:49:25;;;;;;;1.00;0.80;;;21.90;59.00;;;;;;5052029;28;20831;-68
2023/11/08 08:51:51;;;;;;;1.10;0.80;;;21.90;59.00;;;;;;5052656;28;20179;-68
2023/11/08 08:54:18;;;;;;;0.90;0.60;;;21.90;59.00;;;;;;5052053;28;20672;-69
2023/11/08 08:56:47;;;;;;;0.90;0.70;;;21.90;59.10;;;;;;5052174;28;20205;-68
2023/11/08 08:59:13;;;;;;;1.00;0.70;;;21.90;59.00;;;;;;5052012;28;20532;-67
2023/11/08 09:01:38;;;;;;;1.30;0.80;;;21.90;59.00;;;;;;5051659;28;20444;-65
2023/11/08 09:04:05;;;;;;;0.90;0.77;;;21.90;59.00;;;;;;5051791;28;20650;-67
2023/11/08 09:06:31;;;;;;;1.60;0.90;;;21.90;59.00;;;;;;5051913;28;20191;-67
2023/11/08 09:08:56;;;;;;;1.53;0.83;;;21.90;59.00;;;;;;5051213;28;20528;-68
2023/11/08 09:11:22;;;;;;;0.93;0.70;;;21.90;59.00;;;;;;5051765;28;20174;-68
2023/11/08 09:13:48;;;;;;;0.90;0.70;;;21.90;59.00;;;;;;5051562;28;20249;-68
2023/11/08 09:16:16;;;;;;;1.17;0.80;;;21.90;59.00;;;;;;5051518;28;20191;-67
2023/11/08 09:18:42;;;;;;;1.50;0.80;;;21.90;59.00;;;;;;5049998;28;20214;-68
2023/11/08 09:21:07;;;;;;;1.00;0.80;;;21.90;59.10;;;;;;5051582;28;20405;-69
2023/11/08 09:23:33;;;;;;;1.10;0.70;;;21.90;59.10;;;;;;5051625;28;20676;-67
2023/11/08 09:25:59;;;;;;;1.00;0.70;;;21.90;59.60;;;;;;5051296;28;20236;-69
2023/11/08 09:28:28;;;;;;;1.00;0.70;;;21.90;59.10;;;;;;5051248;28;20413;-67
2023/11/08 09:30:54;;;;;;;1.00;0.70;;;21.90;59.10;;;;;;5051310;28;20174;-68
2023/11/08 09:33:21;;;;;;;1.13;0.90;;;21.90;59.10;;;;;;5051064;28;20418;-69
2023/11/08 09:35:47;;;;;;;0.90;0.60;;;21.90;59.10;;;;;;5051277;28;20452;-68
2023/11/08 09:38:12;;;;;;;1.07;0.60;;;21.90;59.10;;;;;;5050967;28;20971;-68
2023/11/08 09:40:38;;;;;;;1.40;0.80;;;21.90;59.10;;;;;;5051147;28;20163;-68
2023/11/08 09:43:05;;;;;;;1.20;0.73;;;21.90;59.10;;;;;;5051310;28;20171;-67
2023/11/08 09:45:31;;;;;;;1.00;0.80;;;21.90;59.10;;;;;;5051073;28;20183;-68
2023/11/08 09:47:58;;;;;;;0.90;0.70;;;21.90;59.10;;;;;;5050926;28;20521;-67
2023/11/08 09:50:24;;;;;;;0.90;0.70;;;21.90;59.10;;;;;;5051043;28;20774;-68
2023/11/08 09:52:51;;;;;;;1.10;0.80;;;21.90;59.10;;;;;;5050809;28;20418;-69
2023/11/08 09:55:17;;;;;;;1.07;0.80;;;21.90;59.10;;;;;;5050662;28;21003;-68
2023/11/08 09:57:49;;;;;;;0.90;0.70;;;21.90;59.10;;;;;;5050781;28;20413;-68
2023/11/08 10:00:19;;;;;;;0.90;0.70;;;21.90;59.10;;;;;;5050758;28;20519;-68
2023/11/08 10:02:45;;;;;;;0.87;0.70;;;21.90;59.10;;;;;;5050597;28;20482;-68
2023/11/08 10:05:11;;;;;;;0.80;0.60;;;21.90;59.10;;;;;;5050872;28;20467;-67
2023/11/08 10:07:39;;;;;;;1.00;0.80;;;21.90;59.10;;;;;;5050507;28;20448;-68
2023/11/08 10:10:06;;;;;;;0.90;0.60;;;21.90;59.10;;;;;;5050916;28;20641;-67
2023/11/08 10:12:32;;;;;;;1.17;0.70;;;21.90;59.10;;;;;;5049184;28;20418;-68
2023/11/08 10:15:02;;;;;;;1.00;0.67;;;21.90;59.10;;;;;;5050451;28;20405;-66
2023/11/08 10:17:41;;;;;;;1.20;0.73;;;21.90;59.10;;;;;;5050546;28;20712;-68
2023/11/08 10:20:10;;;;;;;0.93;0.70;;;21.90;59.10;;;;;;5050654;28;20587;-68
2023/11/08 10:22:36;;;;;;;0.80;0.60;;;21.90;59.10;;;;;;5050656;28;20492;-68
2023/11/08 10:25:04;;;;;;;1.17;0.70;;;21.90;59.10;;;;;;5050086;28;20405;-68
2023/11/08 10:27:32;;;;;;;0.87;0.60;;;21.90;59.10;;;;;;5050544;28;20174;-68
2023/11/08 10:30:20;;;;;;;0.90;0.70;;;21.90;59.10;;;;;;5050563;28;20456;-67
2023/11/08 10:32:47;;;;;;;0.90;0.67;;;21.90;59.10;;;;;;5050620;28;20394;-67
2023/11/08 10:35:20;;;;;;;0.90;0.73;;;21.90;59.10;;;;;;5050402;28;20441;-68
2023/11/08 10:37:46;;;;;;;1.00;0.70;;;21.90;59.10;;;;;;5050808;28;20424;-67
2023/11/08 10:40:16;;;;;;;1.00;0.60;;;21.90;59.10;;;;;;5050192;28;20538;-68
2023/11/08 10:42:50;;;;;;;0.87;0.60;;;21.90;59.10;;;;;;5051886;28;20406;-67
2023/11/08 10:45:18;;;;;;;0.90;0.70;;;21.90;59.20;;;;;;5050329;28;20461;-68
2023/11/08 10:47:43;;;;;;;0.97;0.73;;;21.90;59.10;;;;;;5050532;28;20987;-68
2023/11/08 10:50:09;;;;;;;1.00;0.80;;;21.90;59.10;;;;;;5050566;28;20539;-68
2023/11/08 10:52:42;;;;;;;1.00;0.70;;;21.90;59.10;;;;;;5050423;28;20171;-68
2023/11/08 10:55:09;;;;;;;1.20;0.80;;;21.90;59.10;;;;;;5050372;28;20155;-68
2023/11/08 10:57:36;;;;;;;1.00;0.80;;;21.90;59.10;;;;;;5050399;28;20421;-66
2023/11/08 11:00:07;;;;;;;1.10;0.70;;;21.90;59.10;;;;;;5050313;28;20846;-67
2023/11/08 11:02:41;;;;;;;0.90;0.70;;;21.90;59.10;;;;;;5050439;28;20397;-68
2023/11/08 11:05:12;;;;;;;0.90;0.60;;;21.90;59.10;;;;;;5050305;28;20504;-68
2023/11/08 11:07:42;;;;;;;0.90;0.60;;;21.90;59.10;;;;;;5050391;28;20547;-67
2023/11/08 11:10:09;;;;;;;0.90;0.67;;;21.90;59.10;;;;;;5050673;28;20414;-68
2023/11/08 11:13:03;;;;;;;1.20;0.80;;;21.90;59.20;;;;;;5048940;28;20431;-69
2023/11/08 11:15:46;;;;;;;3.17;0.80;;;21.90;59.10;;;;;;5049986;28;20433;-68
2023/11/08 11:18:18;;;;;;;1.13;0.70;;;21.90;59.10;;;;;;5050061;28;20464;-68
2023/11/08 11:20:59;;;;;;;2.93;0.60;;;21.90;59.10;;;;;;5048858;28;20868;-68
2023/11/08 11:23:35;;;;;;;1.00;0.63;;;21.90;59.20;;;;;;5049915;28;20398;-68
2023/11/08 11:26:01;;;;;;;0.90;0.70;;;21.90;59.20;;;;;;5050274;28;20515;-68
2023/11/08 11:28:51;;;;;;;1.10;0.80;;;21.90;59.20;;;;;;5048635;28;20413;-68
2023/11/08 11:31:33;;;;;;;0.90;0.67;;;21.90;59.20;;;;;;5051055;28;20389;-66
2023/11/08 11:33:59;;;;;;;0.90;0.60;;;21.90;59.20;;;;;;5053670;28;20459;-68
2023/11/08 11:36:25;;;;;;;1.17;0.60;;;21.90;59.20;;;;;;5053984;28;20887;-68
2023/11/08 11:39:19;;;;;;;1.00;0.70;;;21.90;59.20;;;;;;5053933;28;20536;-68
2023/11/08 11:41:45;;;;;;;1.00;0.80;;;21.90;59.20;;;;;;5053289;28;20618;-68
2023/11/08 11:44:10;;;;;;;0.80;0.60;;;21.90;59.20;;;;;;5053458;28;20424;-67
2023/11/08 11:46:36;;;;;;;0.80;0.60;;;21.90;59.20;;;;;;5053263;28;20425;-67
2023/11/08 11:49:09;;;;;;;2.00;0.80;;;21.90;59.20;;;;;;5053199;28;20637;-68
2023/11/08 11:51:40;;;;;;;0.90;0.67;;;21.90;59.20;;;;;;5053460;28;20238;-68
2023/11/08 11:54:05;;;;;;;0.90;0.60;;;21.90;59.20;;;;;;5053305;28;20447;-68
2023/11/08 11:56:31;;;;;;;0.90;0.80;;;21.90;59.20;;;;;;5053542;28;20968;-68
2023/11/08 11:58:58;;;;;;;0.90;0.70;;;21.90;59.20;;;;;;5053452;28;20310;-68
2023/11/08 12:01:24;;;;;;;0.97;0.70;;;21.90;59.20;;;;;;5053336;28;20175;-64
2023/11/08 12:03:51;;;;;;;0.80;0.60;;;21.90;59.20;;;;;;5053221;28;20501;-68
2023/11/08 12:06:16;;;;;;;1.00;0.70;;;21.90;59.20;;;;;;5052984;28;20199;-65
2023/11/08 12:08:42;;;;;;;1.20;0.67;;;21.90;59.20;;;;;;5051863;28;20858;-66
2023/11/08 12:11:15;;;;;;;1.57;1.00;;;22.00;59.20;;;;;;5053084;28;20179;-68
2023/11/08 12:13:51;;;;;;;0.80;0.60;;;22.00;59.20;;;;;;5052908;28;20163;-68
2023/11/08 12:16:18;;;;;;;1.00;0.63;;;22.00;59.30;;;;;;5052714;28;20804;-67
2023/11/08 12:18:48;;;;;;;0.90;0.67;;;22.00;59.30;;;;;;5052500;28;20559;-68
2023/11/08 12:21:15;;;;;;;1.10;0.87;;;22.00;59.30;;;;;;5034738;28;20506;-67
2023/11/08 12:23:47;;;;;;;1.20;0.70;;;22.00;59.30;;;;;;5032280;28;20444;-68
2023/11/08 12:26:13;;;;;;;0.97;0.70;;;22.00;59.30;;;;;;5031196;28;20442;-68
2023/11/08 12:28:40;;;;;;;1.20;0.80;;;22.00;59.30;;;;;;5032617;28;20510;-68
2023/11/08 12:31:07;;;;;;;1.20;0.80;;;22.00;59.30;;;;;;5032632;28;20176;-68
2023/11/08 12:33:33;;;;;;;1.90;1.10;;;22.00;59.30;;;;;;5032764;28;20493;-68
2023/11/08 12:36:01;;;;;;;1.37;0.80;;;22.00;59.30;;;;;;5032469;28;20448;-68
2023/11/08 12:38:27;;;;;;;1.53;1.17;;;22.00;59.30;;;;;;5032292;28;20602;-68
2023/11/08 12:41:04;;;;;;;1.50;0.80;;;22.00;59.30;;;;;;5032792;28;20905;-68
2023/11/08 12:43:29;;;;;;;1.10;0.90;;;22.00;59.20;;;;;;5032455;28;20217;-69
2023/11/08 12:46:03;;;;;;;1.10;0.77;;;22.00;59.20;;;;;;5032397;28;20431;-67
2023/11/08 12:48:30;;;;;;;2.00;1.27;;;22.00;59.30;;;;;;5032027;28;20647;-68